Time;durP1;ratioP1;P1;durP2;ratioP2;P2;SDS_P1;SDS_P2;PMS_P1;PMS_P2;Temp;Humidity;BMP_temperature;BMP_pressure;BME280_temperature;BME280_humidity;BME280_pressure;Samples;Min_cycle;Max_cycle;Signal;HPM_P1;HPM_P2
2023/01/29 00:00:08;;;;;;;14.25;12.00;;;4.50;99.90;;;;;;5212488;28;20103;-67
2023/01/29 00:02:39;;;;;;;15.20;12.40;;;4.70;99.90;;;;;;5209688;28;20041;-68
2023/01/29 00:05:10;;;;;;;14.95;12.15;;;4.40;99.90;;;;;;5209494;28;20588;-67
2023/01/29 00:07:41;;;;;;;13.80;11.32;;;4.50;99.90;;;;;;5209577;28;20104;-67
2023/01/29 00:10:12;;;;;;;15.48;12.05;;;4.80;99.90;;;;;;5209410;28;20061;-70
2023/01/29 00:12:43;;;;;;;17.08;13.35;;;4.70;99.90;;;;;;5209548;28;20076;-69
2023/01/29 00:15:14;;;;;;;14.75;11.55;;;4.60;99.90;;;;;;5209530;28;20033;-67
2023/01/29 00:17:45;;;;;;;16.90;10.50;;;4.50;99.90;;;;;;5209419;28;20072;-67
2023/01/29 00:20:16;;;;;;;14.18;11.52;;;4.70;99.90;;;;;;5209396;28;20473;-66
2023/01/29 00:22:47;;;;;;;13.95;11.50;;;5.00;99.90;;;;;;5209396;28;20034;-66
2023/01/29 00:25:17;;;;;;;17.40;12.07;;;4.70;99.90;;;;;;5209282;28;20036;-67
2023/01/29 00:27:48;;;;;;;16.33;11.45;;;4.70;99.90;;;;;;5209146;28;20044;-66
2023/01/29 00:30:20;;;;;;;14.75;11.60;;;4.40;99.90;;;;;;5209069;28;20029;-67
2023/01/29 00:32:51;;;;;;;14.85;11.55;;;4.10;99.90;;;;;;5208924;28;20084;-66
2023/01/29 00:35:22;;;;;;;17.25;13.38;;;4.50;99.90;;;;;;5209179;28;20025;-66
2023/01/29 00:37:57;;;;;;;17.02;12.80;;;4.30;99.90;;;;;;5209079;28;20363;-69
2023/01/29 00:44:56;;;;;;;13.95;11.43;;;4.50;99.90;;;;;;5208906;28;20429;-68
2023/01/29 00:46:09;;;;;;;16.17;14.40;;;4.60;99.90;;;;;;5209126;28;20296;-67
2023/01/29 00:48:40;;;;;;;14.43;12.20;;;4.40;99.90;;;;;;5208709;28;20493;-66
2023/01/29 00:51:11;;;;;;;15.00;11.60;;;4.70;99.90;;;;;;5208720;28;20032;-66
2023/01/29 00:53:41;;;;;;;17.20;11.93;;;4.50;99.90;;;;;;5208819;28;20041;-67
2023/01/29 00:56:12;;;;;;;14.80;11.27;;;4.20;99.90;;;;;;5208526;28;20033;-68
2023/01/29 00:58:43;;;;;;;14.73;10.93;;;4.10;99.90;;;;;;5208656;28;20026;-68
2023/01/29 01:01:14;;;;;;;14.77;11.27;;;4.00;99.90;;;;;;5208377;28;20041;-66
2023/01/29 01:03:45;;;;;;;15.07;10.70;;;4.10;99.90;;;;;;5208574;28;20033;-66
2023/01/29 01:06:15;;;;;;;12.48;10.45;;;4.20;99.90;;;;;;5208391;28;20400;-67
2023/01/29 01:11:36;;;;;;;14.63;11.82;;;4.00;99.90;;;;;;5215248;28;20012;-66
2023/01/29 01:14:07;;;;;;;12.75;10.60;;;3.80;99.90;;;;;;5228880;28;20469;-68
2023/01/29 01:16:37;;;;;;;15.15;11.82;;;4.00;99.90;;;;;;5228901;28;20020;-66
2023/01/29 01:19:09;;;;;;;11.30;10.18;;;4.00;99.90;;;;;;5228777;28;20060;-66
2023/01/29 01:21:44;;;;;;;11.48;10.07;;;3.90;99.90;;;;;;5228579;28;20048;-66
2023/01/29 01:24:15;;;;;;;15.30;11.15;;;3.80;99.90;;;;;;5228931;28;20033;-67
2023/01/29 01:26:45;;;;;;;11.82;9.15;;;4.20;99.90;;;;;;5228630;28;20511;-66
2023/01/29 01:29:16;;;;;;;13.93;11.00;;;4.30;99.90;;;;;;5228911;28;20021;-66
2023/01/29 01:31:47;;;;;;;11.45;9.98;;;4.10;99.90;;;;;;5228404;28;20052;-66
2023/01/29 01:34:18;;;;;;;12.98;10.35;;;3.70;99.90;;;;;;5228640;28;20334;-66
2023/01/29 01:36:49;;;;;;;12.85;11.55;;;3.60;99.90;;;;;;5228563;28;20499;-66
2023/01/29 01:39:20;;;;;;;13.43;10.15;;;3.70;99.90;;;;;;5228502;28;20029;-66
2023/01/29 01:41:55;;;;;;;13.85;10.82;;;3.40;99.90;;;;;;5228359;28;20032;-66
2023/01/29 01:44:52;;;;;;;13.63;10.25;;;3.40;99.90;;;;;;5228518;28;20029;-66
2023/01/29 01:47:43;;;;;;;15.57;12.00;;;3.60;99.90;;;;;;5228159;28;20108;-69
2023/01/29 01:50:32;;;;;;;14.27;12.75;;;3.70;99.90;;;;;;5228029;28;20479;-67
2023/01/29 01:53:10;;;;;;;16.60;11.98;;;3.80;99.90;;;;;;5228285;28;20056;-66
2023/01/29 01:55:53;;;;;;;12.27;11.07;;;4.00;99.90;;;;;;5228027;28;20412;-69
2023/01/29 01:58:37;;;;;;;13.27;10.13;;;4.00;99.90;;;;;;5228006;28;20029;-66
2023/01/29 02:01:09;;;;;;;12.15;10.65;;;4.30;99.90;;;;;;5227752;28;20029;-66
2023/01/29 02:09:40;;;;;;;12.40;11.17;;;3.50;99.90;;;;;;5227964;28;20058;-67
2023/01/29 02:12:14;;;;;;;12.73;11.43;;;3.60;99.90;;;;;;5227576;28;20469;-66
2023/01/29 02:14:45;;;;;;;13.15;11.45;;;3.40;99.90;;;;;;5227652;28;20029;-66
2023/01/29 02:17:18;;;;;;;12.82;11.55;;;3.60;99.90;;;;;;5227621;28;20465;-66
2023/01/29 02:19:55;;;;;;;15.73;10.82;;;3.60;99.90;;;;;;5227498;28;20078;-66
2023/01/29 02:22:38;;;;;;;12.88;11.48;;;3.30;99.90;;;;;;5226572;28;20037;-67
2023/01/29 02:25:37;;;;;;;14.45;11.77;;;3.50;99.90;;;;;;5227485;28;20028;-67
2023/01/29 02:28:14;;;;;;;13.63;12.20;;;3.20;99.90;;;;;;5227589;28;20040;-67
2023/01/29 02:31:08;;;;;;;15.90;13.25;;;3.00;99.90;;;;;;5227618;28;20036;-66
2023/01/29 02:34:16;;;;;;;14.27;12.88;;;3.50;99.90;;;;;;5236136;28;20106;-66
2023/01/29 02:36:53;;;;;;;15.90;14.45;;;3.20;99.90;;;;;;5241262;28;20021;-69
2023/01/29 02:39:38;;;;;;;16.20;14.68;;;3.10;99.90;;;;;;5227199;28;20033;-66
2023/01/29 02:42:16;;;;;;;15.55;13.90;;;2.80;99.90;;;;;;5227160;28;20067;-68
2023/01/29 02:44:58;;;;;;;15.07;13.68;;;3.10;99.90;;;;;;5227356;28;20033;-66
2023/01/29 02:47:47;;;;;;;13.73;12.40;;;3.30;99.90;;;;;;5227549;28;20021;-67
2023/01/29 02:51:02;;;;;;;15.00;13.50;;;3.10;99.90;;;;;;5227219;28;20492;-67
2023/01/29 02:53:58;;;;;;;16.58;14.85;;;3.00;99.90;;;;;;5226421;28;20036;-66
2023/01/29 02:56:45;;;;;;;16.20;14.70;;;3.00;99.90;;;;;;5227111;28;20618;-66
2023/01/29 02:59:34;;;;;;;15.60;14.07;;;2.90;99.90;;;;;;5226942;28;20380;-68
2023/01/29 03:02:12;;;;;;;15.77;14.18;;;3.00;99.90;;;;;;5226555;28;20076;-66
2023/01/29 03:04:48;;;;;;;14.55;13.15;;;2.70;99.90;;;;;;5226895;28;20029;-67
2023/01/29 03:10:20;;;;;;;14.45;13.00;;;2.90;99.90;;;;;;5206423;28;20517;-67
2023/01/29 03:12:58;;;;;;;15.00;13.57;;;2.60;99.90;;;;;;5206272;28;20030;-66
2023/01/29 03:15:38;;;;;;;15.00;13.45;;;2.70;99.90;;;;;;5205998;28;20038;-66
2023/01/29 03:18:16;;;;;;;15.57;14.07;;;2.80;99.90;;;;;;5205838;28;20029;-66
2023/01/29 03:20:57;;;;;;;15.18;13.82;;;2.70;99.90;;;;;;5205967;28;20049;-66
2023/01/29 03:32:03;;;;;;;15.55;14.07;;;3.40;99.90;;;;;;5206007;28;20050;-66
2023/01/29 03:34:45;;;;;;;12.77;11.65;;;3.50;99.90;;;;;;5205662;28;20061;-66
2023/01/29 03:37:52;;;;;;;14.52;13.10;;;3.30;99.90;;;;;;5205823;28;20034;-66
2023/01/29 03:40:23;;;;;;;13.70;12.32;;;3.80;99.90;;;;;;5162714;28;20030;-69
2023/01/29 03:43:15;;;;;;;12.07;10.68;;;3.90;99.90;;;;;;5198698;28;20049;-66
2023/01/29 03:45:59;;;;;;;10.98;9.80;;;4.10;99.90;;;;;;5205632;28;20489;-67
2023/01/29 03:48:56;;;;;;;11.02;9.80;;;3.70;99.90;;;;;;5205672;28;20099;-66
2023/01/29 03:51:31;;;;;;;12.20;10.27;;;3.70;99.90;;;;;;5205753;28;20052;-66
2023/01/29 03:54:35;;;;;;;12.65;10.18;;;3.80;99.90;;;;;;5205701;28;20021;-66
2023/01/29 03:57:22;;;;;;;12.55;11.35;;;3.30;99.90;;;;;;5205843;28;20363;-66
2023/01/29 04:00:07;;;;;;;12.63;11.52;;;3.70;99.90;;;;;;5205742;28;20029;-69
2023/01/29 04:02:49;;;;;;;17.35;10.38;;;3.60;99.90;;;;;;5205435;28;20049;-66
2023/01/29 04:05:24;;;;;;;12.32;11.20;;;3.40;99.90;;;;;;5205540;28;20100;-66
2023/01/29 04:08:01;;;;;;;12.32;11.00;;;3.10;99.90;;;;;;5205813;28;20116;-67
2023/01/29 04:10:36;;;;;;;11.55;10.38;;;3.40;99.90;;;;;;5205609;28;20354;-66
2023/01/29 04:13:13;;;;;;;12.43;11.13;;;3.30;99.90;;;;;;5205434;28;20535;-66
2023/01/29 04:15:50;;;;;;;12.32;10.98;;;3.60;99.90;;;;;;5205541;28;20475;-65
2023/01/29 04:18:22;;;;;;;11.73;10.52;;;3.40;99.90;;;;;;5205236;28;20362;-69
2023/01/29 04:20:54;;;;;;;12.95;11.73;;;3.20;99.90;;;;;;5205296;28;20072;-66
2023/01/29 04:23:26;;;;;;;11.10;10.00;;;3.40;99.90;;;;;;5205274;28;20038;-68
2023/01/29 04:25:57;;;;;;;11.85;9.93;;;3.70;99.90;;;;;;5205147;28;20021;-66
2023/01/29 04:28:43;;;;;;;12.15;10.95;;;3.10;99.90;;;;;;5205070;28;20037;-66
2023/01/29 04:31:14;;;;;;;15.30;13.80;;;2.90;99.90;;;;;;5205228;28;20040;-67
2023/01/29 04:34:30;;;;;;;14.30;12.80;;;2.80;99.90;;;;;;5205063;28;20052;-67
2023/01/29 04:37:28;;;;;;;16.77;15.20;;;2.90;99.90;;;;;;5168662;28;20045;-66
2023/01/29 04:40:27;;;;;;;14.43;13.02;;;3.40;99.90;;;;;;5204980;28;20033;-67
2023/01/29 04:43:13;;;;;;;14.45;13.10;;;3.00;99.90;;;;;;5187188;28;20052;-66
2023/01/29 04:45:56;;;;;;;14.65;13.35;;;2.80;99.90;;;;;;5206599;28;20122;-66
2023/01/29 04:48:42;;;;;;;14.88;13.50;;;2.90;99.90;;;;;;5208653;28;20053;-65
2023/01/29 04:51:31;;;;;;;15.02;13.52;;;3.20;99.90;;;;;;5208585;28;20381;-66
2023/01/29 04:54:14;;;;;;;13.73;12.43;;;3.60;99.90;;;;;;5208711;28;20535;-69
2023/01/29 04:56:50;;;;;;;14.18;12.88;;;3.10;99.90;;;;;;5249707;28;20111;-66
2023/01/29 04:59:34;;;;;;;14.35;13.00;;;3.40;99.90;;;;;;5249791;28;20108;-66
2023/01/29 05:02:09;;;;;;;14.63;12.38;;;3.50;99.90;;;;;;5230634;28;20082;-70
2023/01/29 05:04:43;;;;;;;12.55;11.30;;;3.20;99.90;;;;;;5230190;28;20385;-66
2023/01/29 05:07:16;;;;;;;13.10;11.80;;;3.00;99.90;;;;;;5228993;28;20017;-66
2023/01/29 05:09:48;;;;;;;13.85;12.55;;;3.40;99.90;;;;;;5229083;28;20029;-68
2023/01/29 05:12:20;;;;;;;14.57;12.95;;;3.00;99.90;;;;;;5229049;28;20526;-67
2023/01/29 05:14:54;;;;;;;12.77;11.48;;;3.20;99.90;;;;;;5228946;28;20033;-66
2023/01/29 05:17:25;;;;;;;13.65;12.32;;;3.20;99.90;;;;;;5211014;28;20040;-68
2023/01/29 05:19:56;;;;;;;15.23;13.82;;;3.00;99.90;;;;;;5228825;28;20025;-67
2023/01/29 05:22:27;;;;;;;14.25;12.70;;;3.60;99.90;;;;;;5228649;28;20485;-68
2023/01/29 05:24:58;;;;;;;12.80;11.48;;;3.40;99.90;;;;;;5228787;28;20025;-66
2023/01/29 05:30:23;;;;;;;12.38;11.23;;;3.00;99.90;;;;;;5228897;28;20070;-67
2023/01/29 05:32:54;;;;;;;12.60;11.50;;;3.20;99.90;;;;;;5228374;28;20061;-68
2023/01/29 05:35:27;;;;;;;14.55;11.23;;;3.40;99.90;;;;;;5228670;28;20032;-69
2023/01/29 05:37:58;;;;;;;13.07;11.88;;;3.80;99.90;;;;;;5228541;28;20452;-68
2023/01/29 05:40:29;;;;;;;11.45;10.25;;;3.70;99.90;;;;;;5228521;28;20090;-66
2023/01/29 05:43:00;;;;;;;13.18;11.68;;;3.70;99.90;;;;;;5228364;28;20033;-66
2023/01/29 05:45:31;;;;;;;12.30;11.10;;;3.90;99.90;;;;;;5228309;28;20021;-66
2023/01/29 05:48:02;;;;;;;12.30;11.00;;;3.70;99.90;;;;;;5228305;28;20068;-68
2023/01/29 05:50:33;;;;;;;12.07;10.88;;;3.80;99.90;;;;;;5228212;28;20112;-67
2023/01/29 05:53:05;;;;;;;12.00;10.57;;;3.50;99.90;;;;;;5228033;28;20074;-66
2023/01/29 05:55:36;;;;;;;12.35;11.10;;;3.80;99.90;;;;;;5228138;28;20164;-66
2023/01/29 05:58:06;;;;;;;12.90;11.65;;;3.90;99.90;;;;;;5227913;28;20544;-68
2023/01/29 06:00:37;;;;;;;12.70;9.73;;;4.20;99.90;;;;;;5228060;28;20101;-66
2023/01/29 06:03:08;;;;;;;14.95;11.70;;;4.10;99.90;;;;;;5227681;28;20090;-67
2023/01/29 06:05:39;;;;;;;14.35;11.02;;;4.10;99.90;;;;;;5227885;28;20086;-67
2023/01/29 06:08:10;;;;;;;20.27;14.27;;;4.20;99.90;;;;;;5227694;28;20025;-66
2023/01/29 06:10:41;;;;;;;19.60;14.40;;;4.10;99.90;;;;;;5227892;28;20028;-66
2023/01/29 06:13:12;;;;;;;19.17;13.80;;;4.00;99.90;;;;;;5227693;28;20025;-69
2023/01/29 06:15:43;;;;;;;15.38;12.27;;;3.60;99.90;;;;;;5227684;28;20033;-66
2023/01/29 06:18:14;;;;;;;16.08;12.57;;;3.90;99.90;;;;;;5227569;28;20456;-66
2023/01/29 06:20:44;;;;;;;15.90;11.68;;;4.20;99.90;;;;;;5227688;28;20048;-66
2023/01/29 06:23:15;;;;;;;16.73;11.52;;;4.20;99.90;;;;;;5227667;28;20040;-66
2023/01/29 06:25:46;;;;;;;15.70;11.82;;;4.10;99.90;;;;;;5227484;28;20024;-69
2023/01/29 06:28:17;;;;;;;15.27;12.15;;;4.50;99.90;;;;;;5227490;28;20385;-68
2023/01/29 06:30:48;;;;;;;15.20;12.23;;;4.60;99.90;;;;;;5227524;28;20029;-66
2023/01/29 06:33:18;;;;;;;18.38;13.20;;;4.20;99.90;;;;;;5227120;28;20049;-67
2023/01/29 06:36:01;;;;;;;21.13;13.73;;;4.20;99.90;;;;;;5227322;28;20086;-66
2023/01/29 06:38:32;;;;;;;21.95;14.20;;;4.20;99.90;;;;;;5227315;28;20481;-66
2023/01/29 06:41:15;;;;;;;18.48;13.02;;;4.50;99.90;;;;;;5227242;28;20028;-69
2023/01/29 06:43:46;;;;;;;21.85;15.75;;;4.20;99.90;;;;;;5227181;28;20615;-69
2023/01/29 06:46:17;;;;;;;24.45;17.45;;;3.70;99.90;;;;;;5226743;28;20037;-68
2023/01/29 06:48:48;;;;;;;19.45;14.60;;;3.50;99.90;;;;;;5226899;28;20021;-66
2023/01/29 06:51:21;;;;;;;16.90;13.00;;;3.40;99.90;;;;;;5227046;28;20036;-66
2023/01/29 06:53:54;;;;;;;13.57;10.95;;;3.60;99.90;;;;;;5226891;28;20025;-68
2023/01/29 06:56:25;;;;;;;15.23;11.82;;;3.40;99.90;;;;;;5226832;28;20473;-66
2023/01/29 06:58:57;;;;;;;13.32;11.80;;;3.80;99.90;;;;;;5226866;28;20163;-66
2023/01/29 07:01:28;;;;;;;12.48;11.05;;;3.80;99.90;;;;;;5226722;28;20036;-67
2023/01/29 07:03:59;;;;;;;14.35;11.43;;;4.00;99.90;;;;;;5226654;28;20052;-67
2023/01/29 07:06:31;;;;;;;15.13;10.90;;;4.10;99.90;;;;;;5226747;28;20384;-69
2023/01/29 07:09:03;;;;;;;15.20;12.23;;;3.60;99.90;;;;;;5226092;28;20044;-69
2023/01/29 07:11:34;;;;;;;15.57;12.52;;;3.60;99.90;;;;;;5226525;28;20108;-68
2023/01/29 07:14:06;;;;;;;15.02;11.80;;;3.60;99.90;;;;;;5226590;28;20055;-67
2023/01/29 07:16:36;;;;;;;16.80;11.80;;;3.70;99.90;;;;;;5226615;28;20033;-66
2023/01/29 07:19:07;;;;;;;16.08;11.77;;;4.00;99.90;;;;;;5226396;28;20019;-67
2023/01/29 07:21:38;;;;;;;14.77;10.80;;;4.00;99.90;;;;;;5226541;28;20477;-66
2023/01/29 07:24:09;;;;;;;15.32;10.73;;;3.70;99.90;;;;;;5226659;28;20040;-67
2023/01/29 07:26:40;;;;;;;15.68;11.40;;;3.70;99.90;;;;;;5226362;28;20032;-68
2023/01/29 07:29:10;;;;;;;15.57;11.40;;;3.50;99.90;;;;;;5226485;28;20088;-66
2023/01/29 07:31:41;;;;;;;16.42;11.45;;;3.70;99.90;;;;;;5226487;28;20033;-68
2023/01/29 07:34:12;;;;;;;18.00;12.27;;;3.50;99.90;;;;;;5226458;28;20079;-68
2023/01/29 07:36:43;;;;;;;13.85;10.35;;;3.90;99.90;;;;;;5226218;28;20031;-75
2023/01/29 07:39:14;;;;;;;15.10;11.25;;;4.10;99.90;;;;;;5226489;28;20039;-75
2023/01/29 07:41:44;;;;;;;21.75;19.65;;;4.00;99.90;;;;;;5226229;28;20025;-66
2023/01/29 07:44:15;;;;;;;12.35;9.65;;;4.20;99.90;;;;;;5226486;28;20051;-67
2023/01/29 07:46:46;;;;;;;13.90;9.88;;;4.20;99.90;;;;;;5226427;28;20010;-66
2023/01/29 07:49:17;;;;;;;13.85;10.30;;;4.10;99.90;;;;;;5226334;28;20083;-66
2023/01/29 07:51:48;;;;;;;12.38;9.90;;;3.80;99.90;;;;;;5226338;28;20013;-66
2023/01/29 07:54:19;;;;;;;12.73;9.88;;;4.10;99.90;;;;;;5226205;28;20032;-69
2023/01/29 07:56:50;;;;;;;15.13;9.75;;;4.50;99.90;;;;;;5226252;28;20025;-70
2023/01/29 07:59:20;;;;;;;12.63;9.75;;;4.70;99.90;;;;;;5226038;28;20040;-69
2023/01/29 08:01:51;;;;;;;12.60;9.93;;;3.90;99.90;;;;;;5225884;28;20063;-68
2023/01/29 08:04:22;;;;;;;10.60;8.82;;;4.30;99.90;;;;;;5191977;28;20056;-69
2023/01/29 08:06:53;;;;;;;12.88;9.98;;;3.40;99.90;;;;;;5226104;28;20017;-67
2023/01/29 08:09:24;;;;;;;14.77;10.95;;;3.80;99.90;;;;;;5225970;28;20103;-67
2023/01/29 08:11:55;;;;;;;12.13;10.45;;;4.50;99.90;;;;;;5226102;28;20021;-67
2023/01/29 08:14:25;;;;;;;14.93;11.25;;;4.50;99.90;;;;;;5225994;28;20048;-70
2023/01/29 08:16:56;;;;;;;13.23;10.23;;;4.70;99.90;;;;;;5225929;28;20032;-67
2023/01/29 08:19:27;;;;;;;21.20;16.48;;;4.30;99.90;;;;;;5209807;28;20025;-71
2023/01/29 08:21:58;;;;;;;13.50;10.68;;;4.30;99.90;;;;;;5208800;28;20076;-68
2023/01/29 08:24:29;;;;;;;12.65;10.50;;;4.70;99.90;;;;;;5209161;28;20096;-66
2023/01/29 08:26:59;;;;;;;12.10;10.88;;;4.40;99.90;;;;;;5208812;28;20585;-67
2023/01/29 08:29:30;;;;;;;12.27;9.35;;;4.60;99.90;;;;;;5209026;28;20029;-66
2023/01/29 08:32:01;;;;;;;11.93;9.85;;;4.20;99.90;;;;;;5208938;28;20108;-71
2023/01/29 08:34:32;;;;;;;13.15;10.02;;;4.70;99.90;;;;;;5191375;28;20463;-71
2023/01/29 08:37:03;;;;;;;14.32;11.13;;;4.30;99.90;;;;;;5209049;28;20049;-71
2023/01/29 08:39:34;;;;;;;12.73;10.23;;;4.30;99.90;;;;;;5208345;28;20040;-68
2023/01/29 08:42:05;;;;;;;13.60;9.90;;;4.40;99.90;;;;;;5208860;28;20041;-67
2023/01/29 08:44:35;;;;;;;15.63;11.48;;;4.40;99.90;;;;;;5208335;28;20030;-66
2023/01/29 08:47:06;;;;;;;15.05;11.85;;;4.60;99.90;;;;;;5208947;28;20029;-66
2023/01/29 08:49:37;;;;;;;12.23;10.73;;;4.70;99.90;;;;;;5208818;28;20022;-66
2023/01/29 08:52:08;;;;;;;14.02;11.45;;;4.40;99.90;;;;;;5208780;28;20108;-68
2023/01/29 08:54:39;;;;;;;13.45;12.18;;;4.50;99.90;;;;;;5208668;28;20081;-63
2023/01/29 08:57:10;;;;;;;17.92;14.10;;;4.70;99.90;;;;;;5208751;28;20025;-68
2023/01/29 08:59:40;;;;;;;14.52;12.75;;;4.60;99.90;;;;;;5208709;28;20021;-69
2023/01/29 09:02:11;;;;;;;11.98;10.77;;;4.50;99.90;;;;;;5208346;28;20042;-69
2023/01/29 09:04:42;;;;;;;11.18;10.07;;;4.60;99.90;;;;;;5208494;28;20021;-68
2023/01/29 09:07:13;;;;;;;12.70;11.45;;;4.50;99.90;;;;;;5208322;28;20098;-66
2023/01/29 09:09:44;;;;;;;13.70;10.95;;;4.70;99.90;;;;;;5208418;28;20033;-67
2023/01/29 09:12:15;;;;;;;13.57;11.05;;;5.00;99.90;;;;;;5208339;28;20061;-68
2023/01/29 09:14:45;;;;;;;12.98;10.88;;;4.90;99.90;;;;;;5208197;28;20068;-69
2023/01/29 09:17:16;;;;;;;12.55;10.70;;;4.70;99.90;;;;;;5208070;28;20485;-67
2023/01/29 09:19:47;;;;;;;14.82;11.55;;;4.40;99.90;;;;;;5207896;28;20036;-67
2023/01/29 09:22:19;;;;;;;12.52;10.98;;;4.30;99.90;;;;;;5208107;28;20033;-67
2023/01/29 09:24:50;;;;;;;12.80;11.38;;;4.10;99.90;;;;;;5208057;28;20424;-69
2023/01/29 09:27:20;;;;;;;17.05;11.90;;;4.20;99.90;;;;;;5207911;28;20029;-66
2023/01/29 09:29:51;;;;;;;15.93;11.73;;;4.80;99.90;;;;;;5207911;28;20026;-66
2023/01/29 09:32:22;;;;;;;14.95;11.45;;;4.80;99.90;;;;;;5207158;28;20041;-66
2023/01/29 09:34:53;;;;;;;13.20;10.30;;;5.10;99.90;;;;;;5207861;28;20040;-66
2023/01/29 09:37:24;;;;;;;12.20;10.68;;;4.70;99.90;;;;;;5207790;28;20047;-66
2023/01/29 09:39:55;;;;;;;14.60;10.50;;;4.60;99.90;;;;;;5207824;28;20033;-65
2023/01/29 09:42:42;;;;;;;15.38;10.88;;;4.30;99.90;;;;;;5207543;28;20041;-65
2023/01/29 09:45:23;;;;;;;12.75;11.32;;;4.50;99.90;;;;;;5207505;28;20036;-66
2023/01/29 09:48:00;;;;;;;14.98;10.45;;;4.60;99.90;;;;;;5207625;28;20026;-66
2023/01/29 09:50:40;;;;;;;16.05;12.85;;;4.60;99.90;;;;;;5207653;28;20033;-66
2023/01/29 09:53:39;;;;;;;17.20;15.15;;;4.50;99.90;;;;;;5207597;28;20036;-66
2023/01/29 09:56:19;;;;;;;29.10;16.65;;;4.60;99.90;;;;;;5207563;28;20097;-66
2023/01/29 09:58:49;;;;;;;27.07;20.97;;;4.30;99.90;;;;;;5207518;28;20032;-68
2023/01/29 10:02:08;;;;;;;21.40;14.90;;;4.80;99.90;;;;;;5189367;28;20389;-67
2023/01/29 10:04:56;;;;;;;14.02;12.57;;;4.90;99.90;;;;;;5155057;28;20492;-67
2023/01/29 10:07:30;;;;;;;15.13;13.75;;;4.60;99.90;;;;;;5234613;28;20037;-67
2023/01/29 10:10:26;;;;;;;14.15;10.55;;;4.40;99.90;;;;;;5227953;28;20025;-67
2023/01/29 10:13:12;;;;;;;12.75;11.20;;;4.30;99.90;;;;;;5207267;28;20507;-70
2023/01/29 10:15:56;;;;;;;13.70;12.40;;;4.50;99.90;;;;;;5207081;28;20034;-70
2023/01/29 10:18:36;;;;;;;12.00;10.07;;;4.30;99.90;;;;;;5208342;28;20401;-68
2023/01/29 10:21:28;;;;;;;13.52;10.80;;;4.40;99.90;;;;;;5225013;28;20056;-73
2023/01/29 10:24:48;;;;;;;12.30;11.20;;;4.10;99.90;;;;;;5227403;28;20075;-68
2023/01/29 10:27:20;;;;;;;13.15;11.73;;;4.50;99.90;;;;;;5205382;28;20124;-72
2023/01/29 10:29:55;;;;;;;14.30;12.18;;;4.10;99.90;;;;;;5209565;28;20037;-70
2023/01/29 10:32:28;;;;;;;12.55;9.52;;;4.20;99.90;;;;;;5227184;28;20047;-67
2023/01/29 10:35:19;;;;;;;12.45;10.38;;;4.40;99.90;;;;;;5227638;28;20126;-68
2023/01/29 10:37:55;;;;;;;15.10;10.30;;;4.60;99.90;;;;;;5220148;28;20033;-71
2023/01/29 10:40:42;;;;;;;12.18;9.43;;;4.30;99.90;;;;;;5206528;28;20029;-71
2023/01/29 10:43:25;;;;;;;13.52;9.70;;;4.50;99.90;;;;;;5205631;28;20034;-67
2023/01/29 10:46:26;;;;;;;20.70;14.18;;;4.90;99.90;;;;;;5188838;28;20025;-70
2023/01/29 10:49:32;;;;;;;20.38;14.60;;;4.60;99.90;;;;;;5205801;28;20520;-72
2023/01/29 10:52:15;;;;;;;19.98;15.98;;;4.60;99.90;;;;;;5206168;28;20400;-68
2023/01/29 10:54:56;;;;;;;16.83;12.43;;;5.00;99.90;;;;;;5206274;28;20029;-69
2023/01/29 10:57:52;;;;;;;12.10;9.48;;;5.10;99.90;;;;;;5206182;28;20067;-67
2023/01/29 11:00:30;;;;;;;10.93;9.93;;;5.00;99.90;;;;;;5206186;28;20103;-68
2023/01/29 11:03:21;;;;;;;10.85;9.77;;;5.00;99.90;;;;;;5205964;28;20053;-66
2023/01/29 11:06:07;;;;;;;10.57;9.63;;;5.20;99.90;;;;;;5206040;28;20017;-66
2023/01/29 11:09:22;;;;;;;10.60;9.43;;;5.20;99.90;;;;;;5205722;28;20439;-68
2023/01/29 11:12:04;;;;;;;10.57;9.68;;;4.90;99.90;;;;;;5206273;28;20079;-70
2023/01/29 11:14:53;;;;;;;13.25;9.55;;;4.60;99.90;;;;;;5206161;28;20096;-66
2023/01/29 11:17:25;;;;;;;12.65;11.25;;;5.00;99.90;;;;;;5206157;28;20025;-70
2023/01/29 11:19:56;;;;;;;12.77;11.45;;;4.60;99.90;;;;;;5206018;28;20101;-66
2023/01/29 11:22:29;;;;;;;12.25;10.95;;;5.00;99.90;;;;;;5205888;28;20116;-68
2023/01/29 11:25:17;;;;;;;15.32;13.73;;;4.70;99.90;;;;;;5206074;28;20053;-69
2023/01/29 11:27:54;;;;;;;13.43;10.43;;;4.90;99.90;;;;;;5205963;28;20025;-66
2023/01/29 11:30:34;;;;;;;11.45;10.25;;;4.40;99.90;;;;;;5204966;28;20017;-67
2023/01/29 11:33:07;;;;;;;11.68;10.45;;;4.80;99.90;;;;;;5205290;28;20053;-69
2023/01/29 11:35:38;;;;;;;11.10;10.00;;;4.90;99.90;;;;;;5187906;28;20859;-68
2023/01/29 11:38:15;;;;;;;10.55;9.13;;;4.40;99.90;;;;;;5205363;28;20121;-70
2023/01/29 11:40:46;;;;;;;13.30;11.32;;;4.70;99.90;;;;;;5205354;28;20021;-66
2023/01/29 11:43:22;;;;;;;13.77;11.27;;;4.60;99.90;;;;;;5205516;28;20040;-70
2023/01/29 11:45:57;;;;;;;11.13;9.93;;;5.10;99.90;;;;;;5205591;28;20549;-70
2023/01/29 11:48:49;;;;;;;11.55;10.50;;;4.50;99.90;;;;;;5205657;28;20021;-68
2023/01/29 11:51:26;;;;;;;10.82;9.82;;;5.00;99.90;;;;;;5205612;28;20017;-71
2023/01/29 11:54:02;;;;;;;10.75;9.65;;;5.10;99.90;;;;;;5206219;28;20030;-70
2023/01/29 11:56:44;;;;;;;12.90;11.07;;;5.10;99.90;;;;;;5209818;28;20465;-68
2023/01/29 11:59:29;;;;;;;14.45;11.25;;;4.60;99.90;;;;;;5209563;28;20025;-68
2023/01/29 12:02:25;;;;;;;11.48;10.27;;;5.00;99.90;;;;;;5209556;28;20152;-70
2023/01/29 12:05:13;;;;;;;13.10;11.65;;;4.60;99.90;;;;;;5209635;28;20029;-70
2023/01/29 12:07:47;;;;;;;12.73;11.43;;;4.40;99.90;;;;;;5209611;28;20025;-70
2023/01/29 12:10:34;;;;;;;14.32;10.85;;;4.50;99.90;;;;;;5209807;28;20029;-69
2023/01/29 12:13:05;;;;;;;12.63;11.40;;;4.40;99.90;;;;;;5209595;28;20420;-67
2023/01/29 12:15:40;;;;;;;13.10;11.52;;;4.30;99.90;;;;;;5209401;28;20025;-70
2023/01/29 12:18:42;;;;;;;13.00;11.80;;;4.40;99.90;;;;;;5209344;28;20342;-71
2023/01/29 12:21:21;;;;;;;13.63;12.25;;;4.50;99.90;;;;;;5209518;28;20469;-71
2023/01/29 12:23:56;;;;;;;14.77;13.38;;;4.30;99.90;;;;;;5209614;28;20043;-71
2023/01/29 12:26:50;;;;;;;25.92;18.67;;;4.00;99.90;;;;;;5209250;28;20448;-71
2023/01/29 12:29:31;;;;;;;15.82;13.50;;;4.20;99.90;;;;;;5191393;28;20030;-71
2023/01/29 12:32:30;;;;;;;16.85;14.13;;;4.00;99.90;;;;;;5208902;28;20049;-68
2023/01/29 12:35:23;;;;;;;15.50;13.85;;;4.50;99.90;;;;;;5209395;28;20041;-69
2023/01/29 12:38:16;;;;;;;19.30;17.08;;;4.10;99.90;;;;;;5209153;28;20026;-68
2023/01/29 12:40:54;;;;;;;27.02;20.90;;;4.00;99.90;;;;;;5208981;28;20032;-68
2023/01/29 12:43:39;;;;;;;45.00;29.55;;;4.20;99.90;;;;;;5208898;28;20044;-68
2023/01/29 12:46:21;;;;;;;31.17;19.90;;;4.30;99.90;;;;;;5208861;28;20354;-71
2023/01/29 12:48:55;;;;;;;18.45;13.95;;;4.50;99.90;;;;;;5208698;28;20054;-68
2023/01/29 12:51:53;;;;;;;14.45;12.95;;;4.30;99.90;;;;;;5208839;28;20029;-71
2023/01/29 12:54:48;;;;;;;15.07;13.55;;;4.40;99.90;;;;;;5208810;28;20112;-70
2023/01/29 12:57:26;;;;;;;15.32;13.13;;;4.00;99.90;;;;;;5208679;28;20036;-70
2023/01/29 13:00:21;;;;;;;14.65;13.10;;;4.00;99.90;;;;;;5208553;28;20068;-70
2023/01/29 13:03:19;;;;;;;15.82;14.23;;;4.40;99.90;;;;;;5208321;28;20047;-70
2023/01/29 13:05:55;;;;;;;14.73;13.32;;;4.60;99.90;;;;;;5207467;28;20061;-71
2023/01/29 13:08:50;;;;;;;14.30;12.70;;;4.40;99.90;;;;;;5208388;28;20021;-70
2023/01/29 13:11:48;;;;;;;13.13;11.85;;;4.30;99.90;;;;;;5208253;28;20018;-70
2023/01/29 13:14:23;;;;;;;13.43;12.02;;;4.30;99.90;;;;;;5208383;28;20164;-70
2023/01/29 13:17:13;;;;;;;12.88;11.52;;;4.30;99.90;;;;;;5208231;28;20489;-70
2023/01/29 13:19:48;;;;;;;16.23;14.48;;;4.60;99.90;;;;;;5208245;28;20143;-70
2023/01/29 13:22:30;;;;;;;12.82;11.30;;;4.80;99.90;;;;;;5207884;28;20048;-71
2023/01/29 13:25:02;;;;;;;17.35;14.38;;;5.00;99.90;;;;;;5208142;28;20033;-68
2023/01/29 13:27:35;;;;;;;14.50;12.77;;;4.70;99.90;;;;;;5207949;28;20041;-67
2023/01/29 13:30:07;;;;;;;26.70;18.55;;;4.50;99.90;;;;;;5208088;28;20022;-71
2023/01/29 13:32:38;;;;;;;292.40;101.28;;;4.30;99.90;;;;;;5207706;28;20071;-70
2023/01/29 13:35:13;;;;;;;30.50;20.98;;;4.40;99.90;;;;;;5208280;28;20033;-71
2023/01/29 13:37:50;;;;;;;19.63;14.25;;;4.40;99.90;;;;;;5207886;28;20057;-70
2023/01/29 13:40:27;;;;;;;25.85;17.02;;;4.70;99.90;;;;;;5207696;28;20024;-70
2023/01/29 13:42:58;;;;;;;13.25;11.10;;;4.60;99.90;;;;;;5207716;28;20397;-69
2023/01/29 13:45:43;;;;;;;14.02;12.52;;;4.40;99.90;;;;;;5207503;28;20052;-71
2023/01/29 13:48:35;;;;;;;16.98;12.23;;;4.10;99.90;;;;;;5207518;28;20445;-71
2023/01/29 13:51:19;;;;;;;16.83;13.40;;;3.90;99.90;;;;;;5207562;28;20123;-71
2023/01/29 13:54:01;;;;;;;39.20;18.52;;;3.90;99.90;;;;;;5207457;28;20112;-71
2023/01/29 13:56:32;;;;;;;38.90;21.40;;;3.90;99.90;;;;;;5207361;28;20381;-71